sensor_id;sensor_type;location;lat;lon;timestamp;pressure;altitude;pressure_sealevel;temperature;humidity
77263;BME280;66373;52.334;4.806;2023-07-30T00:00:54;100765.25;;;22.11;58.46
77263;BME280;66373;52.334;4.806;2023-07-30T00:03:21;100775.81;;;22.10;58.36
77263;BME280;66373;52.334;4.806;2023-07-30T00:05:54;100768.22;;;22.04;58.37
77263;BME280;66373;52.334;4.806;2023-07-30T00:08:21;100780.13;;;22.11;58.39
77263;BME280;66373;52.334;4.806;2023-07-30T00:10:49;100762.13;;;22.03;58.51
77263;BME280;66373;52.334;4.806;2023-07-30T00:13:17;100779.38;;;22.09;58.40
77263;BME280;66373;52.334;4.806;2023-07-30T00:15:45;100780.28;;;22.08;58.36
77263;BME280;66373;52.334;4.806;2023-07-30T00:18:13;100779.38;;;22.09;58.40
77263;BME280;66373;52.334;4.806;2023-07-30T00:20:40;100781.97;;;22.09;58.28
77263;BME280;66373;52.334;4.806;2023-07-30T00:23:07;100785.50;;;22.08;58.35
77263;BME280;66373;52.334;4.806;2023-07-30T00:25:34;100780.28;;;22.08;58.44
77263;BME280;66373;52.334;4.806;2023-07-30T00:28:03;100778.56;;;22.07;58.52
77263;BME280;66373;52.334;4.806;2023-07-30T00:30:30;100770.97;;;21.99;58.46
77263;BME280;66373;52.334;4.806;2023-07-30T00:32:57;100759.91;;;21.91;58.31
77263;BME280;66373;52.334;4.806;2023-07-30T00:35:23;100782.09;;;22.06;58.37
77263;BME280;66373;52.334;4.806;2023-07-30T00:37:51;100782.09;;;22.06;58.36
77263;BME280;66373;52.334;4.806;2023-07-30T00:40:18;100768.53;;;21.94;58.55
77263;BME280;66373;52.334;4.806;2023-07-30T00:42:45;100775.34;;;21.98;58.42
77263;BME280;66373;52.334;4.806;2023-07-30T00:45:13;100770.28;;;21.94;58.42
77263;BME280;66373;52.334;4.806;2023-07-30T00:47:40;100790.88;;;22.05;58.61
77263;BME280;66373;52.334;4.806;2023-07-30T00:50:08;100787.41;;;22.04;58.60
77263;BME280;66373;52.334;4.806;2023-07-30T00:52:38;100787.47;;;22.03;58.43
77263;BME280;66373;52.334;4.806;2023-07-30T00:55:07;100790.88;;;22.05;58.72
77263;BME280;66373;52.334;4.806;2023-07-30T00:57:35;100780.81;;;21.92;58.45
77263;BME280;66373;52.334;4.806;2023-07-30T01:00:03;100792.69;;;22.03;58.40
77263;BME280;66373;52.334;4.806;2023-07-30T01:02:35;100792.69;;;22.03;58.25
77263;BME280;66373;52.334;4.806;2023-07-30T01:05:02;100791.84;;;22.02;58.61
77263;BME280;66373;52.334;4.806;2023-07-30T01:07:30;100779.91;;;21.93;58.62
77263;BME280;66373;52.334;4.806;2023-07-30T01:09:57;100790.97;;;22.02;58.38
77263;BME280;66373;52.334;4.806;2023-07-30T01:12:25;100794.50;;;22.00;58.46
77263;BME280;66373;52.334;4.806;2023-07-30T01:14:54;100794.50;;;22.00;58.64
77263;BME280;66373;52.334;4.806;2023-07-30T01:17:22;100791.06;;;21.98;58.26
77263;BME280;66373;52.334;4.806;2023-07-30T01:19:52;100798.00;;;21.99;58.36
77263;BME280;66373;52.334;4.806;2023-07-30T01:22:22;100801.53;;;21.98;57.94
77263;BME280;66373;52.334;4.806;2023-07-30T01:24:50;100797.28;;;21.96;58.71
77263;BME280;66373;52.334;4.806;2023-07-30T01:27:22;100798.13;;;21.96;58.71
77263;BME280;66373;52.334;4.806;2023-07-30T01:29:52;100798.13;;;21.96;58.67
77263;BME280;66373;52.334;4.806;2023-07-30T01:32:25;100800.81;;;21.95;58.70
77263;BME280;66373;52.334;4.806;2023-07-30T01:34:55;100793.91;;;21.92;58.62
77263;BME280;66373;52.334;4.806;2023-07-30T01:37:25;100786.09;;;21.91;58.53
77263;BME280;66373;52.334;4.806;2023-07-30T01:39:53;100799.09;;;21.94;58.53
77263;BME280;66373;52.334;4.806;2023-07-30T01:42:20;100778.53;;;21.83;58.52
77263;BME280;66373;52.334;4.806;2023-07-30T01:44:47;100802.50;;;21.96;58.63
77263;BME280;66373;52.334;4.806;2023-07-30T01:47:14;100792.88;;;21.96;58.60
77263;BME280;66373;52.334;4.806;2023-07-30T01:49:41;100803.41;;;21.95;58.36
77263;BME280;66373;52.334;4.806;2023-07-30T01:52:08;100795.63;;;21.93;58.46
77263;BME280;66373;52.334;4.806;2023-07-30T01:54:36;100799.94;;;21.94;58.61
77263;BME280;66373;52.334;4.806;2023-07-30T01:57:04;100808.72;;;21.93;58.50
77263;BME280;66373;52.334;4.806;2023-07-30T01:59:31;100803.47;;;21.93;58.46
77263;BME280;66373;52.334;4.806;2023-07-30T02:01:58;100804.38;;;21.92;58.53
77263;BME280;66373;52.334;4.806;2023-07-30T02:04:25;100800.06;;;21.91;58.74
77263;BME280;66373;52.334;4.806;2023-07-30T02:06:52;100805.31;;;21.91;58.52
77263;BME280;66373;52.334;4.806;2023-07-30T02:09:19;100802.72;;;21.90;58.65
77263;BME280;66373;52.334;4.806;2023-07-30T02:11:48;100801.88;;;21.89;58.76
77263;BME280;66373;52.334;4.806;2023-07-30T02:14:15;100807.13;;;21.89;58.52
77263;BME280;66373;52.334;4.806;2023-07-30T02:16:42;100803.69;;;21.87;58.98
77263;BME280;66373;52.334;4.806;2023-07-30T02:19:08;100808.94;;;21.87;58.68
77263;BME280;66373;52.334;4.806;2023-07-30T02:21:35;100807.22;;;21.86;58.64
77263;BME280;66373;52.334;4.806;2023-07-30T02:24:06;100808.09;;;21.87;58.97
77263;BME280;66373;52.334;4.806;2023-07-30T02:26:36;100790.06;;;21.79;58.63
77263;BME280;66373;52.334;4.806;2023-07-30T02:29:04;100801.13;;;21.86;58.82
77263;BME280;66373;52.334;4.806;2023-07-30T02:31:31;100796.75;;;21.86;58.52
77263;BME280;66373;52.334;4.806;2023-07-30T02:33:58;100800.28;;;21.85;58.90
77263;BME280;66373;52.334;4.806;2023-07-30T02:36:25;100777.25;;;21.72;58.80
77263;BME280;66373;52.334;4.806;2023-07-30T02:38:52;100793.34;;;21.84;58.43
77263;BME280;66373;52.334;4.806;2023-07-30T02:41:19;100791.63;;;21.83;59.00
77263;BME280;66373;52.334;4.806;2023-07-30T02:43:47;100791.63;;;21.83;58.76
77263;BME280;66373;52.334;4.806;2023-07-30T02:46:15;100776.22;;;21.76;58.85
77263;BME280;66373;52.334;4.806;2023-07-30T02:48:42;100789.09;;;21.82;58.73
77263;BME280;66373;52.334;4.806;2023-07-30T02:51:09;100778.00;;;21.75;58.84
77263;BME280;66373;52.334;4.806;2023-07-30T02:53:36;100789.94;;;21.82;58.71
77263;BME280;66373;52.334;4.806;2023-07-30T02:56:03;100779.75;;;21.75;58.98
77263;BME280;66373;52.334;4.806;2023-07-30T02:58:30;100782.59;;;21.68;58.95
77263;BME280;66373;52.334;4.806;2023-07-30T03:01:05;100774.63;;;21.72;58.98
77263;BME280;66373;52.334;4.806;2023-07-30T03:03:33;100778.84;;;21.76;59.07
77263;BME280;66373;52.334;4.806;2023-07-30T03:06:00;100787.50;;;21.78;58.91
77263;BME280;66373;52.334;4.806;2023-07-30T03:08:27;100789.25;;;21.77;58.96
77263;BME280;66373;52.334;4.806;2023-07-30T03:10:57;100787.56;;;21.76;59.07
77263;BME280;66373;52.334;4.806;2023-07-30T03:13:24;100791.03;;;21.77;59.08
77263;BME280;66373;52.334;4.806;2023-07-30T03:15:51;100796.38;;;21.74;59.03
77263;BME280;66373;52.334;4.806;2023-07-30T03:18:19;100781.84;;;21.65;59.25
77263;BME280;66373;52.334;4.806;2023-07-30T03:20:47;100790.41;;;21.70;59.24
77263;BME280;66373;52.334;4.806;2023-07-30T03:23:14;100793.81;;;21.72;58.92
77263;BME280;66373;52.334;4.806;2023-07-30T03:25:41;100793.81;;;21.72;58.85
77263;BME280;66373;52.334;4.806;2023-07-30T03:28:08;100797.44;;;21.68;58.66
77263;BME280;66373;52.334;4.806;2023-07-30T03:30:35;100794.88;;;21.66;59.18
77263;BME280;66373;52.334;4.806;2023-07-30T03:33:02;100800.06;;;21.68;59.21
77263;BME280;66373;52.334;4.806;2023-07-30T03:35:29;100806.22;;;21.67;58.99
77263;BME280;66373;52.334;4.806;2023-07-30T03:37:57;100794.34;;;21.57;59.43
77263;BME280;66373;52.334;4.806;2023-07-30T03:40:24;100802.91;;;21.62;59.03
77263;BME280;66373;52.334;4.806;2023-07-30T03:42:51;100803.75;;;21.62;59.07
77263;BME280;66373;52.334;4.806;2023-07-30T03:45:19;100800.34;;;21.60;59.36
77263;BME280;66373;52.334;4.806;2023-07-30T03:47:46;100797.78;;;21.59;58.97
77263;BME280;66373;52.334;4.806;2023-07-30T03:50:13;100796.06;;;21.58;59.24
77263;BME280;66373;52.334;4.806;2023-07-30T03:52:40;100803.00;;;21.59;59.19
77263;BME280;66373;52.334;4.806;2023-07-30T03:55:09;100797.78;;;21.59;59.11
77263;BME280;66373;52.334;4.806;2023-07-30T03:57:36;100805.56;;;21.60;59.18
77263;BME280;66373;52.334;4.806;2023-07-30T04:00:04;100797.91;;;21.56;58.77
77263;BME280;66373;52.334;4.806;2023-07-30T04:02:39;100800.44;;;21.57;58.82
77263;BME280;66373;52.334;4.806;2023-07-30T04:05:07;100810.91;;;21.57;58.58
77263;BME280;66373;52.334;4.806;2023-07-30T04:07:34;100808.38;;;21.56;58.43
77263;BME280;66373;52.334;4.806;2023-07-30T04:10:01;100806.69;;;21.55;58.91
77263;BME280;66373;52.334;4.806;2023-07-30T04:12:30;100807.53;;;21.55;58.45
77263;BME280;66373;52.334;4.806;2023-07-30T04:14:56;100808.44;;;21.54;58.58
77263;BME280;66373;52.334;4.806;2023-07-30T04:17:30;100806.69;;;21.55;58.39
77263;BME280;66373;52.334;4.806;2023-07-30T04:19:59;100813.72;;;21.53;58.48
77263;BME280;66373;52.334;4.806;2023-07-30T04:22:32;100812.88;;;21.52;58.31
77263;BME280;66373;52.334;4.806;2023-07-30T04:25:31;100806.72;;;21.53;58.09
77263;BME280;66373;52.334;4.806;2023-07-30T04:28:08;100785.63;;;21.33;58.35
77263;BME280;66373;52.334;4.806;2023-07-30T04:30:36;100810.41;;;21.48;58.08
77263;BME280;66373;52.334;4.806;2023-07-30T04:33:08;100798.25;;;21.47;58.05
77263;BME280;66373;52.334;4.806;2023-07-30T04:35:40;100803.38;;;21.50;57.93
77263;BME280;66373;52.334;4.806;2023-07-30T04:38:17;100802.56;;;21.48;57.86
77263;BME280;66373;52.334;4.806;2023-07-30T04:40:44;100803.47;;;21.47;58.13
77263;BME280;66373;52.334;4.806;2023-07-30T04:43:21;100804.38;;;21.46;57.84
77263;BME280;66373;52.334;4.806;2023-07-30T04:46:22;100794.22;;;21.37;58.03
77263;BME280;66373;52.334;4.806;2023-07-30T04:48:49;100808.88;;;21.42;57.83
77263;BME280;66373;52.334;4.806;2023-07-30T04:51:21;100813.13;;;21.45;57.73
77263;BME280;66373;52.334;4.806;2023-07-30T04:53:48;100801.97;;;21.40;57.85
77263;BME280;66373;52.334;4.806;2023-07-30T04:56:18;100814.97;;;21.43;57.75
77263;BME280;66373;52.334;4.806;2023-07-30T04:59:03;100791.16;;;21.25;57.49
77263;BME280;66373;52.334;4.806;2023-07-30T05:01:32;100809.03;;;21.38;58.09
77263;BME280;66373;52.334;4.806;2023-07-30T05:03:59;100821.09;;;21.42;57.44
77263;BME280;66373;52.334;4.806;2023-07-30T05:06:29;100802.31;;;21.30;57.55
77263;BME280;66373;52.334;4.806;2023-07-30T05:08:58;100802.59;;;21.23;57.50
77263;BME280;66373;52.334;4.806;2023-07-30T05:11:25;100817.09;;;21.31;57.30
77263;BME280;66373;52.334;4.806;2023-07-30T05:13:53;100827.34;;;21.38;57.68
77263;BME280;66373;52.334;4.806;2023-07-30T05:16:23;100820.63;;;21.30;57.63
77263;BME280;66373;52.334;4.806;2023-07-30T05:18:50;100822.16;;;21.36;57.64
77263;BME280;66373;52.334;4.806;2023-07-30T05:21:17;100827.44;;;21.34;57.38
77263;BME280;66373;52.334;4.806;2023-07-30T05:23:45;100834.38;;;21.36;57.51
77263;BME280;66373;52.334;4.806;2023-07-30T05:26:12;100828.31;;;21.35;57.68
77263;BME280;66373;52.334;4.806;2023-07-30T05:28:39;100817.31;;;21.25;57.28
77263;BME280;66373;52.334;4.806;2023-07-30T05:31:07;100818.03;;;21.30;57.36
77263;BME280;66373;52.334;4.806;2023-07-30T05:33:34;100830.06;;;21.34;57.55
77263;BME280;66373;52.334;4.806;2023-07-30T05:36:01;100819.59;;;21.34;57.25
77263;BME280;66373;52.334;4.806;2023-07-30T05:38:28;100817.88;;;21.33;57.68
77263;BME280;66373;52.334;4.806;2023-07-30T05:40:55;100818.75;;;21.34;57.24
77263;BME280;66373;52.334;4.806;2023-07-30T05:43:22;100810.94;;;21.32;57.03
77263;BME280;66373;52.334;4.806;2023-07-30T05:45:49;100818.03;;;21.30;57.13
77263;BME280;66373;52.334;4.806;2023-07-30T05:48:17;100824.81;;;21.34;57.31
77263;BME280;66373;52.334;4.806;2023-07-30T05:50:44;100812.66;;;21.33;57.32
77263;BME280;66373;52.334;4.806;2023-07-30T05:53:11;100810.94;;;21.32;57.10
77263;BME280;66373;52.334;4.806;2023-07-30T05:55:38;100815.22;;;21.35;57.18
77263;BME280;66373;52.334;4.806;2023-07-30T05:58:05;100816.97;;;21.34;57.29
77263;BME280;66373;52.334;4.806;2023-07-30T06:00:32;100823.06;;;21.35;57.06
77263;BME280;66373;52.334;4.806;2023-07-30T06:02:59;100823.00;;;21.37;57.26
77263;BME280;66373;52.334;4.806;2023-07-30T06:05:28;100824.78;;;21.36;56.82
77263;BME280;66373;52.334;4.806;2023-07-30T06:07:55;100824.81;;;21.34;56.86
77263;BME280;66373;52.334;4.806;2023-07-30T06:10:22;100815.28;;;21.33;56.96
77263;BME280;66373;52.334;4.806;2023-07-30T06:12:49;100817.78;;;21.37;57.28
77263;BME280;66373;52.334;4.806;2023-07-30T06:15:16;100823.06;;;21.35;57.06
77263;BME280;66373;52.334;4.806;2023-07-30T06:17:43;100833.47;;;21.37;57.14
77263;BME280;66373;52.334;4.806;2023-07-30T06:20:11;100826.53;;;21.36;57.08
77263;BME280;66373;52.334;4.806;2023-07-30T06:22:39;100821.31;;;21.36;57.07
77263;BME280;66373;52.334;4.806;2023-07-30T06:25:06;100825.69;;;21.35;57.16
77263;BME280;66373;52.334;4.806;2023-07-30T06:27:33;100807.66;;;21.27;57.08
77263;BME280;66373;52.334;4.806;2023-07-30T06:30:00;100816.06;;;21.36;56.87
77263;BME280;66373;52.334;4.806;2023-07-30T06:32:27;100822.22;;;21.34;57.13
77263;BME280;66373;52.334;4.806;2023-07-30T06:34:54;100829.22;;;21.34;56.72
77263;BME280;66373;52.334;4.806;2023-07-30T06:37:22;100824.03;;;21.32;56.91
77263;BME280;66373;52.334;4.806;2023-07-30T06:39:51;100803.34;;;21.26;56.97
77263;BME280;66373;52.334;4.806;2023-07-30T06:42:18;100826.63;;;21.32;57.25
77263;BME280;66373;52.334;4.806;2023-07-30T06:44:45;100810.31;;;21.26;56.80
77263;BME280;66373;52.334;4.806;2023-07-30T06:47:12;100824.94;;;21.31;57.35
77263;BME280;66373;52.334;4.806;2023-07-30T06:49:39;100830.16;;;21.31;56.79
77263;BME280;66373;52.334;4.806;2023-07-30T06:52:06;100838.94;;;21.30;56.93
77263;BME280;66373;52.334;4.806;2023-07-30T06:54:33;100838.94;;;21.30;57.12
77263;BME280;66373;52.334;4.806;2023-07-30T06:57:01;100834.63;;;21.29;56.85
77263;BME280;66373;52.334;4.806;2023-07-30T06:59:28;100816.31;;;21.29;57.10
77263;BME280;66373;52.334;4.806;2023-07-30T07:01:55;100819.84;;;21.28;57.03
77263;BME280;66373;52.334;4.806;2023-07-30T07:04:22;100822.44;;;21.28;57.19
77263;BME280;66373;52.334;4.806;2023-07-30T07:06:49;100822.59;;;21.24;57.10
77263;BME280;66373;52.334;4.806;2023-07-30T07:09:16;100828.50;;;21.30;57.25
77263;BME280;66373;52.334;4.806;2023-07-30T07:11:43;100828.50;;;21.30;56.82
77263;BME280;66373;52.334;4.806;2023-07-30T07:14:12;100833.72;;;21.30;57.13
77263;BME280;66373;52.334;4.806;2023-07-30T07:16:38;100836.38;;;21.29;56.97
77263;BME280;66373;52.334;4.806;2023-07-30T07:19:05;100837.25;;;21.29;56.97
77263;BME280;66373;52.334;4.806;2023-07-30T07:21:32;100829.69;;;21.20;57.06
77263;BME280;66373;52.334;4.806;2023-07-30T07:23:59;100836.66;;;21.20;57.11
77263;BME280;66373;52.334;4.806;2023-07-30T07:26:26;100831.69;;;21.12;57.11
77263;BME280;66373;52.334;4.806;2023-07-30T07:28:55;100858.38;;;21.23;56.93
77263;BME280;66373;52.334;4.806;2023-07-30T07:31:24;100853.16;;;21.23;57.00
77263;BME280;66373;52.334;4.806;2023-07-30T07:33:50;100856.66;;;21.22;57.41
77263;BME280;66373;52.334;4.806;2023-07-30T07:36:17;100851.44;;;21.22;57.43
77263;BME280;66373;52.334;4.806;2023-07-30T07:38:44;100849.03;;;21.15;57.21
77263;BME280;66373;52.334;4.806;2023-07-30T07:41:14;100841.44;;;21.07;57.26
77263;BME280;66373;52.334;4.806;2023-07-30T07:43:42;100856.03;;;21.14;57.24
77263;BME280;66373;52.334;4.806;2023-07-30T07:46:09;100877.66;;;21.21;57.37
77263;BME280;66373;52.334;4.806;2023-07-30T07:48:41;100868.06;;;21.20;57.60
77263;BME280;66373;52.334;4.806;2023-07-30T07:51:08;100871.56;;;21.20;57.54
77263;BME280;66373;52.334;4.806;2023-07-30T07:53:36;100881.13;;;21.20;57.47
77263;BME280;66373;52.334;4.806;2023-07-30T07:56:03;100888.13;;;21.19;57.82
77263;BME280;66373;52.334;4.806;2023-07-30T07:58:31;100879.66;;;21.11;57.56
77263;BME280;66373;52.334;4.806;2023-07-30T08:00:58;100854.88;;;20.96;57.71
77263;BME280;66373;52.334;4.806;2023-07-30T08:03:25;100891.75;;;21.15;57.85
77263;BME280;66373;52.334;4.806;2023-07-30T08:05:54;100889.19;;;21.14;57.88
77263;BME280;66373;52.334;4.806;2023-07-30T08:08:24;100898.78;;;21.13;57.40
77263;BME280;66373;52.334;4.806;2023-07-30T08:10:51;100893.56;;;21.13;57.71
77263;BME280;66373;52.334;4.806;2023-07-30T08:13:18;100891.94;;;21.09;57.68
77263;BME280;66373;52.334;4.806;2023-07-30T08:15:44;100881.81;;;21.00;57.57
77263;BME280;66373;52.334;4.806;2023-07-30T08:18:12;100895.38;;;21.11;58.13
77263;BME280;66373;52.334;4.806;2023-07-30T08:20:38;100891.84;;;21.12;57.82
77263;BME280;66373;52.334;4.806;2023-07-30T08:23:07;100876.47;;;21.03;58.00
77263;BME280;66373;52.334;4.806;2023-07-30T08:25:34;100887.50;;;21.11;57.93
77263;BME280;66373;52.334;4.806;2023-07-30T08:28:01;100891.03;;;21.10;58.05
77263;BME280;66373;52.334;4.806;2023-07-30T08:30:27;100881.38;;;21.12;57.94
77263;BME280;66373;52.334;4.806;2023-07-30T08:32:54;100880.47;;;21.13;57.85
77263;BME280;66373;52.334;4.806;2023-07-30T08:35:21;100889.19;;;21.14;58.13
77263;BME280;66373;52.334;4.806;2023-07-30T08:37:48;100881.28;;;21.15;57.93
77263;BME280;66373;52.334;4.806;2023-07-30T08:40:16;100891.75;;;21.15;58.08
77263;BME280;66373;52.334;4.806;2023-07-30T08:42:43;100890.94;;;21.13;58.38
77263;BME280;66373;52.334;4.806;2023-07-30T08:45:10;100892.69;;;21.13;58.15
77263;BME280;66373;52.334;4.806;2023-07-30T08:47:39;100887.47;;;21.13;58.17
77263;BME280;66373;52.334;4.806;2023-07-30T08:50:07;100891.84;;;21.12;58.05
77263;BME280;66373;52.334;4.806;2023-07-30T08:52:35;100897.94;;;21.13;57.93
77263;BME280;66373;52.334;4.806;2023-07-30T08:55:03;100895.38;;;21.11;58.35
77263;BME280;66373;52.334;4.806;2023-07-30T08:57:32;100887.72;;;21.05;58.16
77263;BME280;66373;52.334;4.806;2023-07-30T09:00:02;100892.16;;;21.03;58.22
77263;BME280;66373;52.334;4.806;2023-07-30T09:02:34;100904.97;;;21.11;58.23
77263;BME280;66373;52.334;4.806;2023-07-30T09:05:04;100906.69;;;21.12;58.47
77263;BME280;66373;52.334;4.806;2023-07-30T09:07:31;100895.03;;;20.95;58.19
77263;BME280;66373;52.334;4.806;2023-07-30T09:09:58;100871.91;;;20.82;58.23
77263;BME280;66373;52.334;4.806;2023-07-30T09:12:26;100913.72;;;21.10;58.39
77263;BME280;66373;52.334;4.806;2023-07-30T09:14:57;100919.81;;;21.10;58.40
77263;BME280;66373;52.334;4.806;2023-07-30T09:17:24;100910.25;;;21.09;58.60
77263;BME280;66373;52.334;4.806;2023-07-30T09:19:51;100915.47;;;21.09;58.49
77263;BME280;66373;52.334;4.806;2023-07-30T09:22:24;100910.28;;;21.08;58.33
77263;BME280;66373;52.334;4.806;2023-07-30T09:24:52;100912.88;;;21.09;58.36
77263;BME280;66373;52.334;4.806;2023-07-30T09:27:21;100914.56;;;21.10;58.29
77263;BME280;66373;52.334;4.806;2023-07-30T09:29:52;100911.91;;;21.12;58.10
77263;BME280;66373;52.334;4.806;2023-07-30T09:32:25;100913.66;;;21.11;58.56
77263;BME280;66373;52.334;4.806;2023-07-30T09:34:53;100922.28;;;21.15;58.39
77263;BME280;66373;52.334;4.806;2023-07-30T09:37:26;100924.84;;;21.16;58.62
77263;BME280;66373;52.334;4.806;2023-07-30T09:39:53;100929.41;;;21.10;58.34
77263;BME280;66373;52.334;4.806;2023-07-30T09:42:20;100935.31;;;21.16;58.07
77263;BME280;66373;52.334;4.806;2023-07-30T09:44:47;100939.53;;;21.22;58.25
77263;BME280;66373;52.334;4.806;2023-07-30T09:47:15;100939.44;;;21.25;58.44
77263;BME280;66373;52.334;4.806;2023-07-30T09:49:43;100938.47;;;21.27;58.16
77263;BME280;66373;52.334;4.806;2023-07-30T09:52:12;100900.00;;;21.03;58.21
77263;BME280;66373;52.334;4.806;2023-07-30T09:54:40;100940.19;;;21.28;57.98
77263;BME280;66373;52.334;4.806;2023-07-30T09:57:08;100950.47;;;21.33;58.30
77263;BME280;66373;52.334;4.806;2023-07-30T09:59:35;100958.28;;;21.34;58.15
77263;BME280;66373;52.334;4.806;2023-07-30T10:02:04;100950.44;;;21.34;58.07
77263;BME280;66373;52.334;4.806;2023-07-30T10:04:34;100957.19;;;21.42;58.06
77263;BME280;66373;52.334;4.806;2023-07-30T10:07:06;100956.97;;;21.48;57.99
77263;BME280;66373;52.334;4.806;2023-07-30T10:09:38;100960.41;;;21.50;58.24
77263;BME280;66373;52.334;4.806;2023-07-30T10:12:10;100953.34;;;21.52;58.31
77263;BME280;66373;52.334;4.806;2023-07-30T10:14:37;100947.38;;;21.48;57.92
77263;BME280;66373;52.334;4.806;2023-07-30T10:17:04;100945.59;;;21.49;57.94
77263;BME280;66373;52.334;4.806;2023-07-30T10:19:31;100965.53;;;21.53;57.62
77263;BME280;66373;52.334;4.806;2023-07-30T10:22:23;100959.50;;;21.51;57.80
77263;BME280;66373;52.334;4.806;2023-07-30T10:24:58;100970.72;;;21.54;57.70
77263;BME280;66373;52.334;4.806;2023-07-30T10:27:28;100931.34;;;21.31;57.58
77263;BME280;66373;52.334;4.806;2023-07-30T10:30:10;100950.03;;;21.47;57.60
77263;BME280;66373;52.334;4.806;2023-07-30T10:32:38;100974.88;;;21.60;57.53
77263;BME280;66373;52.334;4.806;2023-07-30T10:35:06;100974.16;;;21.56;57.49
77263;BME280;66373;52.334;4.806;2023-07-30T10:37:34;100968.84;;;21.58;57.35
77263;BME280;66373;52.334;4.806;2023-07-30T10:40:15;100970.59;;;21.57;57.25
77263;BME280;66373;52.334;4.806;2023-07-30T10:42:43;100979.25;;;21.59;57.28
77263;BME280;66373;52.334;4.806;2023-07-30T10:45:11;100968.97;;;21.55;57.24
77263;BME280;66373;52.334;4.806;2023-07-30T10:47:40;100983.38;;;21.66;57.25
77263;BME280;66373;52.334;4.806;2023-07-30T10:50:08;100973.88;;;21.64;57.83
77263;BME280;66373;52.334;4.806;2023-07-30T10:52:39;100983.22;;;21.71;57.36
77263;BME280;66373;52.334;4.806;2023-07-30T10:55:07;100986.66;;;21.73;57.12
77263;BME280;66373;52.334;4.806;2023-07-30T10:57:34;100987.56;;;21.72;57.13
77263;BME280;66373;52.334;4.806;2023-07-30T11:00:02;100987.56;;;21.72;57.22
77263;BME280;66373;52.334;4.806;2023-07-30T11:02:30;100979.72;;;21.72;57.24
77263;BME280;66373;52.334;4.806;2023-07-30T11:04:57;100981.41;;;21.73;57.31
77263;BME280;66373;52.334;4.806;2023-07-30T11:07:24;100984.03;;;21.73;57.45
77263;BME280;66373;52.334;4.806;2023-07-30T11:10:01;100996.22;;;21.74;57.25
77263;BME280;66373;52.334;4.806;2023-07-30T11:12:28;100991.09;;;21.71;57.05
77263;BME280;66373;52.334;4.806;2023-07-30T11:15:02;100994.50;;;21.73;57.39
77263;BME280;66373;52.334;4.806;2023-07-30T11:17:29;100987.34;;;21.78;56.94
77263;BME280;66373;52.334;4.806;2023-07-30T11:19:56;100993.50;;;21.77;56.96
77263;BME280;66373;52.334;4.806;2023-07-30T11:22:30;100996.94;;;21.79;56.63
77263;BME280;66373;52.334;4.806;2023-07-30T11:24:57;100985.53;;;21.80;56.34
77263;BME280;66373;52.334;4.806;2023-07-30T11:27:28;100990.53;;;21.86;57.00
77263;BME280;66373;52.334;4.806;2023-07-30T11:29:56;100996.69;;;21.85;56.34
77263;BME280;66373;52.334;4.806;2023-07-30T11:32:23;100999.22;;;21.88;56.12
77263;BME280;66373;52.334;4.806;2023-07-30T11:34:53;101000.81;;;21.92;56.51
77263;BME280;66373;52.334;4.806;2023-07-30T11:37:20;101006.91;;;21.93;56.79
77263;BME280;66373;52.334;4.806;2023-07-30T11:39:56;101002.53;;;21.93;56.71
77263;BME280;66373;52.334;4.806;2023-07-30T11:42:23;101006.16;;;21.89;56.40
77263;BME280;66373;52.334;4.806;2023-07-30T11:44:52;101011.28;;;21.92;56.82
77263;BME280;66373;52.334;4.806;2023-07-30T11:47:21;101015.63;;;21.93;56.52
77263;BME280;66373;52.334;4.806;2023-07-30T11:49:55;101014.63;;;21.97;56.40
77263;BME280;66373;52.334;4.806;2023-07-30T11:52:22;101012.81;;;21.99;56.48
77263;BME280;66373;52.334;4.806;2023-07-30T11:54:59;101019.78;;;22.00;56.49
77263;BME280;66373;52.334;4.806;2023-07-30T11:57:33;101008.63;;;21.94;56.58
77263;BME280;66373;52.334;4.806;2023-07-30T12:00:02;101015.41;;;21.99;56.07
77263;BME280;66373;52.334;4.806;2023-07-30T12:02:38;101019.78;;;22.00;56.57
77263;BME280;66373;52.334;4.806;2023-07-30T12:05:06;101021.41;;;22.05;56.12
77263;BME280;66373;52.334;4.806;2023-07-30T12:07:33;101012.53;;;22.09;56.25
77263;BME280;66373;52.334;4.806;2023-07-30T12:10:07;101015.69;;;22.17;55.67
77263;BME280;66373;52.334;4.806;2023-07-30T12:12:34;101023.41;;;22.21;55.37
77263;BME280;66373;52.334;4.806;2023-07-30T12:15:10;101023.41;;;22.21;55.46
77263;BME280;66373;52.334;4.806;2023-07-30T12:17:37;101021.38;;;22.29;54.92
77263;BME280;66373;52.334;4.806;2023-07-30T12:20:05;101025.66;;;22.32;55.09
77263;BME280;66373;52.334;4.806;2023-07-30T12:22:33;101027.19;;;22.38;54.70
77263;BME280;66373;52.334;4.806;2023-07-30T12:25:04;101029.75;;;22.39;54.35
77263;BME280;66373;52.334;4.806;2023-07-30T12:27:31;101035.84;;;22.40;55.46
77263;BME280;66373;52.334;4.806;2023-07-30T12:29:58;101044.66;;;22.37;55.56
77263;BME280;66373;52.334;4.806;2023-07-30T12:32:27;101037.84;;;22.33;55.82
77263;BME280;66373;52.334;4.806;2023-07-30T12:34:55;101042.09;;;22.35;55.67
77263;BME280;66373;52.334;4.806;2023-07-30T12:37:22;101050.03;;;22.34;55.87
77263;BME280;66373;52.334;4.806;2023-07-30T12:39:48;101046.63;;;22.32;55.78
77263;BME280;66373;52.334;4.806;2023-07-30T12:42:16;101051.88;;;22.32;55.93
77263;BME280;66373;52.334;4.806;2023-07-30T12:44:42;101014.00;;;22.16;55.71
77263;BME280;66373;52.334;4.806;2023-07-30T12:47:09;101049.81;;;22.40;55.25
77263;BME280;66373;52.334;4.806;2023-07-30T12:49:38;101053.34;;;22.39;55.48
77263;BME280;66373;52.334;4.806;2023-07-30T12:52:06;101041.94;;;22.40;55.72
77263;BME280;66373;52.334;4.806;2023-07-30T12:54:33;101067.34;;;22.38;55.83
77263;BME280;66373;52.334;4.806;2023-07-30T12:56:59;101058.81;;;22.33;55.87